sensor_id;sensor_type;location;lat;lon;timestamp;temperature;humidity
18577;DHT22;9418;52.694;13.294;2024-02-26T00:01:04;0.80;99.90
18577;DHT22;9418;52.694;13.294;2024-02-26T00:03:30;0.80;99.90
18577;DHT22;9418;52.694;13.294;2024-02-26T00:05:58;0.70;99.90
18577;DHT22;9418;52.694;13.294;2024-02-26T00:08:25;0.70;99.90
18577;DHT22;9418;52.694;13.294;2024-02-26T00:10:51;0.70;99.90
18577;DHT22;9418;52.694;13.294;2024-02-26T00:13:18;0.60;99.90
18577;DHT22;9418;52.694;13.294;2024-02-26T00:15:45;0.60;99.90
18577;DHT22;9418;52.694;13.294;2024-02-26T00:18:13;0.60;99.90
18577;DHT22;9418;52.694;13.294;2024-02-26T00:20:40;0.60;99.90
18577;DHT22;9418;52.694;13.294;2024-02-26T00:23:08;0.60;99.90
18577;DHT22;9418;52.694;13.294;2024-02-26T00:25:35;0.50;99.90
18577;DHT22;9418;52.694;13.294;2024-02-26T00:28:02;0.50;99.90
18577;DHT22;9418;52.694;13.294;2024-02-26T00:30:28;0.40;99.90
18577;DHT22;9418;52.694;13.294;2024-02-26T00:32:55;0.40;99.90
18577;DHT22;9418;52.694;13.294;2024-02-26T00:35:23;0.40;99.90
18577;DHT22;9418;52.694;13.294;2024-02-26T00:37:49;0.40;99.90
18577;DHT22;9418;52.694;13.294;2024-02-26T00:40:16;0.30;99.90
18577;DHT22;9418;52.694;13.294;2024-02-26T00:42:43;0.20;99.90
18577;DHT22;9418;52.694;13.294;2024-02-26T00:45:11;0.20;99.90
18577;DHT22;9418;52.694;13.294;2024-02-26T00:47:38;0.20;99.90
18577;DHT22;9418;52.694;13.294;2024-02-26T00:50:07;0.20;99.90
18577;DHT22;9418;52.694;13.294;2024-02-26T00:52:35;0.20;99.90
18577;DHT22;9418;52.694;13.294;2024-02-26T00:55:02;0.20;99.90
18577;DHT22;9418;52.694;13.294;2024-02-26T00:57:29;0.20;99.90
18577;DHT22;9418;52.694;13.294;2024-02-26T00:59:56;0.20;99.90
18577;DHT22;9418;52.694;13.294;2024-02-26T01:02:22;0.20;99.90
18577;DHT22;9418;52.694;13.294;2024-02-26T01:04:49;0.10;99.90
18577;DHT22;9418;52.694;13.294;2024-02-26T01:07:15;0.00;99.90
18577;DHT22;9418;52.694;13.294;2024-02-26T01:09:43;0.00;99.90
18577;DHT22;9418;52.694;13.294;2024-02-26T01:12:10;0.00;99.90
18577;DHT22;9418;52.694;13.294;2024-02-26T01:14:36;0.10;99.90
18577;DHT22;9418;52.694;13.294;2024-02-26T01:17:03;0.00;99.90
18577;DHT22;9418;52.694;13.294;2024-02-26T01:19:30;-0.10;99.90
18577;DHT22;9418;52.694;13.294;2024-02-26T01:21:56;-0.10;99.90
18577;DHT22;9418;52.694;13.294;2024-02-26T01:24:23;-0.10;99.90
18577;DHT22;9418;52.694;13.294;2024-02-26T01:26:51;0.00;99.90
18577;DHT22;9418;52.694;13.294;2024-02-26T01:29:17;-0.10;99.90
18577;DHT22;9418;52.694;13.294;2024-02-26T01:31:44;-0.10;99.90
18577;DHT22;9418;52.694;13.294;2024-02-26T01:34:10;-0.10;99.90
18577;DHT22;9418;52.694;13.294;2024-02-26T01:36:37;-0.20;99.90
18577;DHT22;9418;52.694;13.294;2024-02-26T01:39:03;-0.20;99.90
18577;DHT22;9418;52.694;13.294;2024-02-26T01:41:30;-0.20;99.90
18577;DHT22;9418;52.694;13.294;2024-02-26T01:43:58;-0.20;99.90
18577;DHT22;9418;52.694;13.294;2024-02-26T01:46:25;-0.20;96.00
18577;DHT22;9418;52.694;13.294;2024-02-26T01:48:52;-0.20;96.50
18577;DHT22;9418;52.694;13.294;2024-02-26T01:51:18;-0.20;99.90
18577;DHT22;9418;52.694;13.294;2024-02-26T01:53:45;-0.20;94.20
18577;DHT22;9418;52.694;13.294;2024-02-26T01:56:12;-0.20;95.30
18577;DHT22;9418;52.694;13.294;2024-02-26T01:58:41;-0.20;90.80
18577;DHT22;9418;52.694;13.294;2024-02-26T02:01:09;-0.30;95.50
18577;DHT22;9418;52.694;13.294;2024-02-26T02:03:36;-0.30;96.00
18577;DHT22;9418;52.694;13.294;2024-02-26T02:06:03;-0.30;90.10
18577;DHT22;9418;52.694;13.294;2024-02-26T02:08:30;-0.30;88.00
18577;DHT22;9418;52.694;13.294;2024-02-26T02:10:57;-0.20;85.20
18577;DHT22;9418;52.694;13.294;2024-02-26T02:13:23;-0.30;89.50
18577;DHT22;9418;52.694;13.294;2024-02-26T02:15:50;-0.40;96.70
18577;DHT22;9418;52.694;13.294;2024-02-26T02:18:19;-0.40;97.50
18577;DHT22;9418;52.694;13.294;2024-02-26T02:20:47;-0.30;89.80
18577;DHT22;9418;52.694;13.294;2024-02-26T02:23:13;-0.20;86.80
18577;DHT22;9418;52.694;13.294;2024-02-26T02:25:40;-0.20;88.80
18577;DHT22;9418;52.694;13.294;2024-02-26T02:28:07;-0.20;89.10
18577;DHT22;9418;52.694;13.294;2024-02-26T02:30:33;-0.20;92.10
18577;DHT22;9418;52.694;13.294;2024-02-26T02:33:01;-0.30;92.10
18577;DHT22;9418;52.694;13.294;2024-02-26T02:35:28;-0.30;93.50
18577;DHT22;9418;52.694;13.294;2024-02-26T02:37:56;-0.30;89.00
18577;DHT22;9418;52.694;13.294;2024-02-26T02:40:23;-0.30;95.10
18577;DHT22;9418;52.694;13.294;2024-02-26T02:42:50;-0.40;98.10
18577;DHT22;9418;52.694;13.294;2024-02-26T02:45:16;-0.40;92.70
18577;DHT22;9418;52.694;13.294;2024-02-26T02:47:43;-0.40;89.20
18577;DHT22;9418;52.694;13.294;2024-02-26T02:50:09;-0.30;87.30
18577;DHT22;9418;52.694;13.294;2024-02-26T02:52:36;-0.30;82.70
18577;DHT22;9418;52.694;13.294;2024-02-26T02:55:04;-0.30;83.60
18577;DHT22;9418;52.694;13.294;2024-02-26T02:57:31;-0.40;88.70
18577;DHT22;9418;52.694;13.294;2024-02-26T02:59:59;-0.40;89.40
18577;DHT22;9418;52.694;13.294;2024-02-26T03:02:25;-0.50;94.50
18577;DHT22;9418;52.694;13.294;2024-02-26T03:04:52;-0.50;89.20
18577;DHT22;9418;52.694;13.294;2024-02-26T03:07:18;-0.50;86.20
18577;DHT22;9418;52.694;13.294;2024-02-26T03:09:46;-0.50;84.50
18577;DHT22;9418;52.694;13.294;2024-02-26T03:12:14;-0.50;76.10
18577;DHT22;9418;52.694;13.294;2024-02-26T03:14:40;-0.50;75.90
18577;DHT22;9418;52.694;13.294;2024-02-26T03:17:07;-0.50;72.00
18577;DHT22;9418;52.694;13.294;2024-02-26T03:19:33;-0.50;68.80
18577;DHT22;9418;52.694;13.294;2024-02-26T03:22:00;-0.40;69.10
18577;DHT22;9418;52.694;13.294;2024-02-26T03:24:27;-0.50;68.30
18577;DHT22;9418;52.694;13.294;2024-02-26T03:26:54;-0.50;67.10
18577;DHT22;9418;52.694;13.294;2024-02-26T03:29:22;-0.40;68.40
18577;DHT22;9418;52.694;13.294;2024-02-26T03:31:48;-0.40;65.00
18577;DHT22;9418;52.694;13.294;2024-02-26T03:34:15;-0.40;63.80
18577;DHT22;9418;52.694;13.294;2024-02-26T03:36:42;-0.40;64.50
18577;DHT22;9418;52.694;13.294;2024-02-26T03:39:09;-0.40;63.20
18577;DHT22;9418;52.694;13.294;2024-02-26T03:41:36;-0.40;67.20
18577;DHT22;9418;52.694;13.294;2024-02-26T03:44:03;-0.40;67.80
18577;DHT22;9418;52.694;13.294;2024-02-26T03:46:31;-0.40;68.40
18577;DHT22;9418;52.694;13.294;2024-02-26T03:48:58;-0.40;68.30
18577;DHT22;9418;52.694;13.294;2024-02-26T03:51:24;-0.40;68.90
18577;DHT22;9418;52.694;13.294;2024-02-26T03:53:52;-0.40;67.40
18577;DHT22;9418;52.694;13.294;2024-02-26T03:56:18;-0.40;65.30
18577;DHT22;9418;52.694;13.294;2024-02-26T03:58:46;-0.40;66.50
18577;DHT22;9418;52.694;13.294;2024-02-26T04:01:12;-0.40;67.90
18577;DHT22;9418;52.694;13.294;2024-02-26T04:03:40;-0.40;71.50
18577;DHT22;9418;52.694;13.294;2024-02-26T04:06:08;-0.40;74.00
18577;DHT22;9418;52.694;13.294;2024-02-26T04:08:36;-0.50;74.50
18577;DHT22;9418;52.694;13.294;2024-02-26T04:11:03;-0.50;77.40
18577;DHT22;9418;52.694;13.294;2024-02-26T04:13:32;-0.50;76.10
18577;DHT22;9418;52.694;13.294;2024-02-26T04:15:59;-0.50;76.00
18577;DHT22;9418;52.694;13.294;2024-02-26T04:18:26;-0.50;75.40
18577;DHT22;9418;52.694;13.294;2024-02-26T04:20:54;-0.50;77.10
18577;DHT22;9418;52.694;13.294;2024-02-26T04:23:22;-0.50;79.10
18577;DHT22;9418;52.694;13.294;2024-02-26T04:25:49;-0.50;76.90
18577;DHT22;9418;52.694;13.294;2024-02-26T04:28:15;-0.50;76.70
18577;DHT22;9418;52.694;13.294;2024-02-26T04:30:42;-0.40;66.10
18577;DHT22;9418;52.694;13.294;2024-02-26T04:33:09;-0.50;69.60
18577;DHT22;9418;52.694;13.294;2024-02-26T04:35:35;-0.50;72.20
18577;DHT22;9418;52.694;13.294;2024-02-26T04:38:03;-0.50;73.40
18577;DHT22;9418;52.694;13.294;2024-02-26T04:40:30;-0.50;73.40
18577;DHT22;9418;52.694;13.294;2024-02-26T04:42:57;-0.50;74.20
18577;DHT22;9418;52.694;13.294;2024-02-26T04:45:23;-0.50;73.70
18577;DHT22;9418;52.694;13.294;2024-02-26T04:47:50;-0.50;75.20
18577;DHT22;9418;52.694;13.294;2024-02-26T04:50:17;-0.50;74.20
18577;DHT22;9418;52.694;13.294;2024-02-26T04:52:43;-0.50;77.20
18577;DHT22;9418;52.694;13.294;2024-02-26T04:55:11;-0.50;78.40
18577;DHT22;9418;52.694;13.294;2024-02-26T04:57:38;-0.50;81.30
18577;DHT22;9418;52.694;13.294;2024-02-26T05:00:05;-0.50;84.70
18577;DHT22;9418;52.694;13.294;2024-02-26T05:02:32;-0.50;90.00
18577;DHT22;9418;52.694;13.294;2024-02-26T05:05:03;-0.60;89.70
18577;DHT22;9418;52.694;13.294;2024-02-26T05:07:30;-0.60;86.40
18577;DHT22;9418;52.694;13.294;2024-02-26T05:09:57;-0.50;84.20
18577;DHT22;9418;52.694;13.294;2024-02-26T05:12:25;-0.50;82.30
18577;DHT22;9418;52.694;13.294;2024-02-26T05:14:51;-0.50;80.30
18577;DHT22;9418;52.694;13.294;2024-02-26T05:17:18;-0.50;78.70
18577;DHT22;9418;52.694;13.294;2024-02-26T05:19:44;-0.50;71.90
18577;DHT22;9418;52.694;13.294;2024-02-26T05:22:11;-0.50;67.40
18577;DHT22;9418;52.694;13.294;2024-02-26T05:24:38;-0.50;67.80
18577;DHT22;9418;52.694;13.294;2024-02-26T05:27:04;-0.50;65.20
18577;DHT22;9418;52.694;13.294;2024-02-26T05:29:32;-0.50;66.50
18577;DHT22;9418;52.694;13.294;2024-02-26T05:32:00;-0.50;67.20
18577;DHT22;9418;52.694;13.294;2024-02-26T05:34:26;-0.60;70.70
18577;DHT22;9418;52.694;13.294;2024-02-26T05:36:55;-0.60;73.30
18577;DHT22;9418;52.694;13.294;2024-02-26T05:39:22;-0.50;73.10
18577;DHT22;9418;52.694;13.294;2024-02-26T05:41:48;-0.50;72.50
18577;DHT22;9418;52.694;13.294;2024-02-26T05:44:15;-0.50;72.70
18577;DHT22;9418;52.694;13.294;2024-02-26T05:46:43;-0.50;74.60
18577;DHT22;9418;52.694;13.294;2024-02-26T05:49:10;-0.50;76.50
18577;DHT22;9418;52.694;13.294;2024-02-26T05:51:36;-0.50;75.80
18577;DHT22;9418;52.694;13.294;2024-02-26T05:54:03;-0.50;74.80
18577;DHT22;9418;52.694;13.294;2024-02-26T05:56:29;-0.50;71.10
18577;DHT22;9418;52.694;13.294;2024-02-26T05:58:56;-0.50;71.70
18577;DHT22;9418;52.694;13.294;2024-02-26T06:01:22;-0.40;64.60
18577;DHT22;9418;52.694;13.294;2024-02-26T06:03:51;-0.40;69.60
18577;DHT22;9418;52.694;13.294;2024-02-26T06:06:18;-0.40;71.00
18577;DHT22;9418;52.694;13.294;2024-02-26T06:08:44;-0.30;63.90
18577;DHT22;9418;52.694;13.294;2024-02-26T06:11:11;-0.30;66.10
18577;DHT22;9418;52.694;13.294;2024-02-26T06:13:38;-0.30;68.30
18577;DHT22;9418;52.694;13.294;2024-02-26T06:16:05;-0.20;54.20
18577;DHT22;9418;52.694;13.294;2024-02-26T06:18:33;-0.20;54.40
18577;DHT22;9418;52.694;13.294;2024-02-26T06:21:01;-0.20;60.70
18577;DHT22;9418;52.694;13.294;2024-02-26T06:23:28;-0.20;59.50
18577;DHT22;9418;52.694;13.294;2024-02-26T06:25:54;-0.10;61.70
18577;DHT22;9418;52.694;13.294;2024-02-26T06:28:21;-0.10;52.80
18577;DHT22;9418;52.694;13.294;2024-02-26T06:30:47;0.00;49.90
18577;DHT22;9418;52.694;13.294;2024-02-26T06:33:15;0.10;49.50
18577;DHT22;9418;52.694;13.294;2024-02-26T06:35:42;0.10;49.90
18577;DHT22;9418;52.694;13.294;2024-02-26T06:38:10;0.20;52.10
18577;DHT22;9418;52.694;13.294;2024-02-26T06:40:39;0.20;53.50
18577;DHT22;9418;52.694;13.294;2024-02-26T06:43:05;0.30;56.90
18577;DHT22;9418;52.694;13.294;2024-02-26T06:45:32;0.50;57.60
18577;DHT22;9418;52.694;13.294;2024-02-26T06:47:59;0.60;58.10
18577;DHT22;9418;52.694;13.294;2024-02-26T06:50:26;0.80;59.30
18577;DHT22;9418;52.694;13.294;2024-02-26T06:52:52;0.80;61.30
18577;DHT22;9418;52.694;13.294;2024-02-26T06:55:20;0.90;66.00
18577;DHT22;9418;52.694;13.294;2024-02-26T06:57:47;0.90;69.20
18577;DHT22;9418;52.694;13.294;2024-02-26T07:00:15;1.00;70.80
18577;DHT22;9418;52.694;13.294;2024-02-26T07:02:42;1.10;71.90
18577;DHT22;9418;52.694;13.294;2024-02-26T07:05:09;1.30;75.40
18577;DHT22;9418;52.694;13.294;2024-02-26T07:07:35;1.60;79.80
18577;DHT22;9418;52.694;13.294;2024-02-26T07:10:02;1.80;90.40
18577;DHT22;9418;52.694;13.294;2024-02-26T07:12:32;2.00;96.60
18577;DHT22;9418;52.694;13.294;2024-02-26T07:14:59;2.10;99.90
18577;DHT22;9418;52.694;13.294;2024-02-26T07:17:25;2.10;99.90
18577;DHT22;9418;52.694;13.294;2024-02-26T07:19:52;2.10;99.90
18577;DHT22;9418;52.694;13.294;2024-02-26T07:22:19;2.20;99.90
18577;DHT22;9418;52.694;13.294;2024-02-26T07:24:45;2.20;99.90
18577;DHT22;9418;52.694;13.294;2024-02-26T07:27:12;2.30;99.90
18577;DHT22;9418;52.694;13.294;2024-02-26T07:29:40;2.50;99.90
18577;DHT22;9418;52.694;13.294;2024-02-26T07:32:06;2.80;99.90
18577;DHT22;9418;52.694;13.294;2024-02-26T07:34:33;2.90;99.90
18577;DHT22;9418;52.694;13.294;2024-02-26T07:37:00;3.10;99.90
18577;DHT22;9418;52.694;13.294;2024-02-26T07:39:28;3.10;99.90
18577;DHT22;9418;52.694;13.294;2024-02-26T07:41:55;3.20;99.90
18577;DHT22;9418;52.694;13.294;2024-02-26T07:44:21;3.30;99.90
18577;DHT22;9418;52.694;13.294;2024-02-26T07:46:49;3.60;99.90
18577;DHT22;9418;52.694;13.294;2024-02-26T07:49:16;3.80;99.90
18577;DHT22;9418;52.694;13.294;2024-02-26T07:51:42;4.00;99.90
18577;DHT22;9418;52.694;13.294;2024-02-26T07:54:09;4.30;99.90
18577;DHT22;9418;52.694;13.294;2024-02-26T07:56:35;4.40;99.90
18577;DHT22;9418;52.694;13.294;2024-02-26T07:59:02;4.50;99.90
18577;DHT22;9418;52.694;13.294;2024-02-26T08:01:29;4.60;99.90
18577;DHT22;9418;52.694;13.294;2024-02-26T08:03:57;4.70;99.90
18577;DHT22;9418;52.694;13.294;2024-02-26T08:06:23;4.70;99.90
18577;DHT22;9418;52.694;13.294;2024-02-26T08:08:50;4.80;99.90
18577;DHT22;9418;52.694;13.294;2024-02-26T08:11:17;4.90;99.90
18577;DHT22;9418;52.694;13.294;2024-02-26T08:13:44;5.00;99.90
18577;DHT22;9418;52.694;13.294;2024-02-26T08:16:10;5.00;99.90
18577;DHT22;9418;52.694;13.294;2024-02-26T08:18:37;5.10;99.90
18577;DHT22;9418;52.694;13.294;2024-02-26T08:21:05;5.00;99.90
18577;DHT22;9418;52.694;13.294;2024-02-26T08:23:32;5.10;99.90
18577;DHT22;9418;52.694;13.294;2024-02-26T08:25:59;5.00;99.90
18577;DHT22;9418;52.694;13.294;2024-02-26T08:28:25;5.10;99.90
18577;DHT22;9418;52.694;13.294;2024-02-26T08:30:52;5.10;99.90
18577;DHT22;9418;52.694;13.294;2024-02-26T08:33:19;5.10;99.90
18577;DHT22;9418;52.694;13.294;2024-02-26T08:35:45;5.30;99.90
18577;DHT22;9418;52.694;13.294;2024-02-26T08:38:13;5.30;99.90
18577;DHT22;9418;52.694;13.294;2024-02-26T08:40:40;5.50;99.90
18577;DHT22;9418;52.694;13.294;2024-02-26T08:43:06;5.50;99.90
18577;DHT22;9418;52.694;13.294;2024-02-26T08:45:33;5.60;99.90
18577;DHT22;9418;52.694;13.294;2024-02-26T08:48:00;5.60;99.90
18577;DHT22;9418;52.694;13.294;2024-02-26T08:50:27;5.70;99.90
18577;DHT22;9418;52.694;13.294;2024-02-26T08:52:53;5.80;99.90
18577;DHT22;9418;52.694;13.294;2024-02-26T08:55:21;6.00;99.90
18577;DHT22;9418;52.694;13.294;2024-02-26T08:57:48;6.20;99.90
18577;DHT22;9418;52.694;13.294;2024-02-26T09:00:16;6.30;91.90
18577;DHT22;9418;52.694;13.294;2024-02-26T09:02:43;6.50;99.90
18577;DHT22;9418;52.694;13.294;2024-02-26T09:05:10;6.60;25.30
18577;DHT22;9418;52.694;13.294;2024-02-26T09:07:36;6.60;30.30
18577;DHT22;9418;52.694;13.294;2024-02-26T09:10:04;6.90;37.50
18577;DHT22;9418;52.694;13.294;2024-02-26T09:12:32;7.30;50.20
18577;DHT22;9418;52.694;13.294;2024-02-26T09:14:59;7.70;61.00
18577;DHT22;9418;52.694;13.294;2024-02-26T09:17:25;8.00;77.20
18577;DHT22;9418;52.694;13.294;2024-02-26T09:19:52;8.20;85.60
18577;DHT22;9418;52.694;13.294;2024-02-26T09:22:18;8.20;96.80
18577;DHT22;9418;52.694;13.294;2024-02-26T09:24:45;8.30;94.30
18577;DHT22;9418;52.694;13.294;2024-02-26T09:27:12;8.40;99.90
18577;DHT22;9418;52.694;13.294;2024-02-26T09:29:39;8.60;99.90
18577;DHT22;9418;52.694;13.294;2024-02-26T09:32:06;9.20;99.90
18577;DHT22;9418;52.694;13.294;2024-02-26T09:34:33;9.70;99.90
18577;DHT22;9418;52.694;13.294;2024-02-26T09:37:00;10.40;99.90
18577;DHT22;9418;52.694;13.294;2024-02-26T09:39:26;11.00;99.90
18577;DHT22;9418;52.694;13.294;2024-02-26T09:41:53;10.70;99.90
18577;DHT22;9418;52.694;13.294;2024-02-26T09:44:20;10.70;99.90
18577;DHT22;9418;52.694;13.294;2024-02-26T09:46:49;10.80;99.90
18577;DHT22;9418;52.694;13.294;2024-02-26T09:49:16;11.60;99.90
18577;DHT22;9418;52.694;13.294;2024-02-26T09:51:43;11.70;99.90
18577;DHT22;9418;52.694;13.294;2024-02-26T09:54:10;11.90;99.90
18577;DHT22;9418;52.694;13.294;2024-02-26T09:56:39;12.60;99.90
18577;DHT22;9418;52.694;13.294;2024-02-26T09:59:07;13.00;99.90
18577;DHT22;9418;52.694;13.294;2024-02-26T10:01:37;13.00;99.90
18577;DHT22;9418;52.694;13.294;2024-02-26T10:04:06;12.80;99.90
18577;DHT22;9418;52.694;13.294;2024-02-26T10:06:36;12.70;99.90
18577;DHT22;9418;52.694;13.294;2024-02-26T10:09:03;12.70;99.90
18577;DHT22;9418;52.694;13.294;2024-02-26T10:11:32;12.70;99.90
18577;DHT22;9418;52.694;13.294;2024-02-26T10:13:59;13.30;99.90
18577;DHT22;9418;52.694;13.294;2024-02-26T10:16:25;13.70;99.90
18577;DHT22;9418;52.694;13.294;2024-02-26T10:18:53;13.50;99.90
18577;DHT22;9418;52.694;13.294;2024-02-26T10:21:22;12.50;99.90
18577;DHT22;9418;52.694;13.294;2024-02-26T10:23:49;12.90;99.90
18577;DHT22;9418;52.694;13.294;2024-02-26T10:26:16;13.30;99.90
18577;DHT22;9418;52.694;13.294;2024-02-26T10:28:44;13.50;99.90
18577;DHT22;9418;52.694;13.294;2024-02-26T10:31:11;12.90;99.90
18577;DHT22;9418;52.694;13.294;2024-02-26T10:33:41;13.70;99.90
18577;DHT22;9418;52.694;13.294;2024-02-26T10:36:09;13.80;99.90
18577;DHT22;9418;52.694;13.294;2024-02-26T10:38:37;13.60;99.90
18577;DHT22;9418;52.694;13.294;2024-02-26T10:41:04;13.90;99.90
18577;DHT22;9418;52.694;13.294;2024-02-26T10:43:32;13.60;99.90
18577;DHT22;9418;52.694;13.294;2024-02-26T10:45:58;13.60;99.90
18577;DHT22;9418;52.694;13.294;2024-02-26T10:48:25;13.70;99.90
18577;DHT22;9418;52.694;13.294;2024-02-26T10:50:52;13.60;99.90
18577;DHT22;9418;52.694;13.294;2024-02-26T10:53:21;13.60;99.90
18577;DHT22;9418;52.694;13.294;2024-02-26T10:55:53;13.60;99.90
18577;DHT22;9418;52.694;13.294;2024-02-26T10:58:21;13.80;99.90
18577;DHT22;9418;52.694;13.294;2024-02-26T11:00:50;13.90;99.90
18577;DHT22;9418;52.694;13.294;2024-02-26T11:03:18;13.60;99.90
18577;DHT22;9418;52.694;13.294;2024-02-26T11:05:46;13.90;99.90
18577;DHT22;9418;52.694;13.294;2024-02-26T11:08:14;14.00;99.90
18577;DHT22;9418;52.694;13.294;2024-02-26T11:10:42;13.50;99.90
18577;DHT22;9418;52.694;13.294;2024-02-26T11:13:12;13.30;99.90
18577;DHT22;9418;52.694;13.294;2024-02-26T11:15:40;12.90;99.90
18577;DHT22;9418;52.694;13.294;2024-02-26T11:18:08;12.90;99.90
18577;DHT22;9418;52.694;13.294;2024-02-26T11:20:38;12.80;99.90
18577;DHT22;9418;52.694;13.294;2024-02-26T11:23:05;12.70;99.90
18577;DHT22;9418;52.694;13.294;2024-02-26T11:25:33;12.50;99.90
18577;DHT22;9418;52.694;13.294;2024-02-26T11:28:02;12.30;99.90
18577;DHT22;9418;52.694;13.294;2024-02-26T11:30:33;12.70;99.90
18577;DHT22;9418;52.694;13.294;2024-02-26T11:33:00;13.00;99.90
18577;DHT22;9418;52.694;13.294;2024-02-26T11:35:28;13.10;99.90
18577;DHT22;9418;52.694;13.294;2024-02-26T11:37:56;13.10;99.90
18577;DHT22;9418;52.694;13.294;2024-02-26T11:40:24;12.90;99.90
18577;DHT22;9418;52.694;13.294;2024-02-26T11:42:51;12.70;99.90
18577;DHT22;9418;52.694;13.294;2024-02-26T11:48:28;12.70;99.90
18577;DHT22;9418;52.694;13.294;2024-02-26T11:50:55;13.00;99.90
18577;DHT22;9418;52.694;13.294;2024-02-26T11:53:25;12.70;99.90
18577;DHT22;9418;52.694;13.294;2024-02-26T11:56:19;12.60;99.90
18577;DHT22;9418;52.694;13.294;2024-02-26T11:58:46;12.60;99.90
18577;DHT22;9418;52.694;13.294;2024-02-26T12:01:40;12.60;99.90
18577;DHT22;9418;52.694;13.294;2024-02-26T12:04:14;12.70;99.90
18577;DHT22;9418;52.694;13.294;2024-02-26T12:06:46;12.50;99.90
18577;DHT22;9418;52.694;13.294;2024-02-26T12:09:13;12.50;99.90
18577;DHT22;9418;52.694;13.294;2024-02-26T12:11:40;12.50;99.90
18577;DHT22;9418;52.694;13.294;2024-02-26T12:14:09;12.70;99.90
18577;DHT22;9418;52.694;13.294;2024-02-26T12:16:37;12.80;99.90
18577;DHT22;9418;52.694;13.294;2024-02-26T12:19:04;12.80;99.90
18577;DHT22;9418;52.694;13.294;2024-02-26T12:21:33;13.00;99.90
18577;DHT22;9418;52.694;13.294;2024-02-26T12:24:11;13.10;99.90
18577;DHT22;9418;52.694;13.294;2024-02-26T12:26:38;13.10;99.90
18577;DHT22;9418;52.694;13.294;2024-02-26T12:29:05;13.00;99.90
18577;DHT22;9418;52.694;13.294;2024-02-26T12:31:32;13.10;99.90
18577;DHT22;9418;52.694;13.294;2024-02-26T12:33:59;13.20;99.90
18577;DHT22;9418;52.694;13.294;2024-02-26T12:36:26;13.40;99.90
18577;DHT22;9418;52.694;13.294;2024-02-26T12:38:55;13.60;99.90
18577;DHT22;9418;52.694;13.294;2024-02-26T12:41:22;13.60;99.90
18577;DHT22;9418;52.694;13.294;2024-02-26T12:43:49;13.70;99.90
18577;DHT22;9418;52.694;13.294;2024-02-26T12:46:15;14.00;99.90
18577;DHT22;9418;52.694;13.294;2024-02-26T12:48:43;13.90;99.90
18577;DHT22;9418;52.694;13.294;2024-02-26T12:51:10;13.80;99.90
18577;DHT22;9418;52.694;13.294;2024-02-26T12:53:38;13.60;99.90
18577;DHT22;9418;52.694;13.294;2024-02-26T12:56:07;13.50;99.90
18577;DHT22;9418;52.694;13.294;2024-02-26T12:58:35;13.50;99.90
18577;DHT22;9418;52.694;13.294;2024-02-26T13:01:03;13.50;99.90
18577;DHT22;9418;52.694;13.294;2024-02-26T13:03:31;13.50;99.90
18577;DHT22;9418;52.694;13.294;2024-02-26T13:05:58;13.50;99.90
18577;DHT22;9418;52.694;13.294;2024-02-26T13:08:25;13.20;99.90
18577;DHT22;9418;52.694;13.294;2024-02-26T13:10:52;13.10;99.90
18577;DHT22;9418;52.694;13.294;2024-02-26T13:13:20;12.90;99.90
18577;DHT22;9418;52.694;13.294;2024-02-26T13:15:48;12.90;99.90
18577;DHT22;9418;52.694;13.294;2024-02-26T13:18:15;12.90;99.90
18577;DHT22;9418;52.694;13.294;2024-02-26T13:20:42;12.70;99.90
18577;DHT22;9418;52.694;13.294;2024-02-26T13:23:11;12.60;99.90
18577;DHT22;9418;52.694;13.294;2024-02-26T13:25:38;12.50;99.90
18577;DHT22;9418;52.694;13.294;2024-02-26T13:28:07;12.50;99.90
18577;DHT22;9418;52.694;13.294;2024-02-26T13:30:36;12.40;99.90
18577;DHT22;9418;52.694;13.294;2024-02-26T13:33:09;12.10;99.90
18577;DHT22;9418;52.694;13.294;2024-02-26T13:35:36;12.10;99.90
18577;DHT22;9418;52.694;13.294;2024-02-26T13:38:04;12.10;99.90
18577;DHT22;9418;52.694;13.294;2024-02-26T13:40:31;12.00;99.90
18577;DHT22;9418;52.694;13.294;2024-02-26T13:42:58;12.00;99.90
18577;DHT22;9418;52.694;13.294;2024-02-26T13:45:24;12.00;99.90
18577;DHT22;9418;52.694;13.294;2024-02-26T13:47:52;11.90;99.90
18577;DHT22;9418;52.694;13.294;2024-02-26T13:50:19;12.00;99.90
18577;DHT22;9418;52.694;13.294;2024-02-26T13:52:48;12.00;99.90
18577;DHT22;9418;52.694;13.294;2024-02-26T13:55:18;12.10;99.90
18577;DHT22;9418;52.694;13.294;2024-02-26T13:57:45;12.10;99.90
18577;DHT22;9418;52.694;13.294;2024-02-26T14:00:13;12.10;99.90
18577;DHT22;9418;52.694;13.294;2024-02-26T14:02:39;12.10;99.90
18577;DHT22;9418;52.694;13.294;2024-02-26T14:05:08;11.90;99.90
18577;DHT22;9418;52.694;13.294;2024-02-26T14:07:35;11.90;99.90
18577;DHT22;9418;52.694;13.294;2024-02-26T14:10:01;11.80;99.90
18577;DHT22;9418;52.694;13.294;2024-02-26T14:12:28;11.70;99.90
18577;DHT22;9418;52.694;13.294;2024-02-26T14:14:55;11.70;99.90
18577;DHT22;9418;52.694;13.294;2024-02-26T14:17:21;11.60;99.90
18577;DHT22;9418;52.694;13.294;2024-02-26T14:19:48;11.70;99.90
18577;DHT22;9418;52.694;13.294;2024-02-26T14:22:16;11.50;99.90
18577;DHT22;9418;52.694;13.294;2024-02-26T14:24:43;11.50;99.90
18577;DHT22;9418;52.694;13.294;2024-02-26T14:27:10;11.50;99.90
18577;DHT22;9418;52.694;13.294;2024-02-26T14:29:39;11.40;99.90
18577;DHT22;9418;52.694;13.294;2024-02-26T14:32:07;11.30;99.90
18577;DHT22;9418;52.694;13.294;2024-02-26T14:34:33;11.30;99.90
18577;DHT22;9418;52.694;13.294;2024-02-26T14:37:00;11.20;99.90
18577;DHT22;9418;52.694;13.294;2024-02-26T14:39:28;11.20;99.90
18577;DHT22;9418;52.694;13.294;2024-02-26T14:41:55;11.20;99.90
18577;DHT22;9418;52.694;13.294;2024-02-26T14:44:22;11.10;99.90
18577;DHT22;9418;52.694;13.294;2024-02-26T14:46:49;11.10;99.90
18577;DHT22;9418;52.694;13.294;2024-02-26T14:49:16;11.00;99.90
18577;DHT22;9418;52.694;13.294;2024-02-26T14:51:43;11.00;99.90
18577;DHT22;9418;52.694;13.294;2024-02-26T14:54:10;11.00;99.90
18577;DHT22;9418;52.694;13.294;2024-02-26T14:56:38;11.00;99.90
18577;DHT22;9418;52.694;13.294;2024-02-26T14:59:05;10.90;99.90
18577;DHT22;9418;52.694;13.294;2024-02-26T15:01:32;10.90;99.90
18577;DHT22;9418;52.694;13.294;2024-02-26T15:04:00;10.80;99.90
18577;DHT22;9418;52.694;13.294;2024-02-26T15:06:26;10.80;99.90
18577;DHT22;9418;52.694;13.294;2024-02-26T15:08:53;10.80;99.90
18577;DHT22;9418;52.694;13.294;2024-02-26T15:11:19;10.80;99.90
18577;DHT22;9418;52.694;13.294;2024-02-26T15:13:47;10.70;99.90
18577;DHT22;9418;52.694;13.294;2024-02-26T15:16:17;10.70;99.90
18577;DHT22;9418;52.694;13.294;2024-02-26T15:18:44;10.70;99.90
18577;DHT22;9418;52.694;13.294;2024-02-26T15:21:11;10.70;99.90
18577;DHT22;9418;52.694;13.294;2024-02-26T15:23:38;10.70;99.90
18577;DHT22;9418;52.694;13.294;2024-02-26T15:26:05;10.70;99.90
18577;DHT22;9418;52.694;13.294;2024-02-26T15:28:31;10.70;99.90
18577;DHT22;9418;52.694;13.294;2024-02-26T15:30:59;10.70;99.90
18577;DHT22;9418;52.694;13.294;2024-02-26T15:33:26;10.60;99.90
18577;DHT22;9418;52.694;13.294;2024-02-26T15:35:52;10.60;99.90
18577;DHT22;9418;52.694;13.294;2024-02-26T15:38:19;10.60;99.90